Weather at Aeródromo Aerópolis

Public forecast

Using degrees Celsius for public forecast. Weather courtesy of forecast.io.

Closest aviation weather report (METAR) to Aeródromo Aerópolis

Closest report is Getafe Air Base, 41.7 nm (77.2 km) ENE. Retrieved 2021/04/11 13:30 UTC (8 minutes ago):

LEGT 111330Z 32007KT 290V350 9999 -SHRA FEW017 SCT031CB BKN040 14/11 Q1014

Closest aviation forecast (TAF) to Aeródromo Aerópolis

Closest forecast is Getafe Air Base, 41.7 nm (77.2 km) ENE. Retrieved 2021/04/11 12:00 UTC (2 hours ago):

TAF LEGT 111100Z 1112/1212 24010KT 9999 SCT025 TX17/1116Z TN02/1206Z TEMPO 1112/1119 3000 RA SHRA BKN010 SCT030TCU PROB40 TEMPO 1112/1119 VRB15G25KT 2000 TSRA SCT030CB BECMG 1116/1118 02010KT